Date,TemperatureHighF,TemperatureAvgF,TemperatureLowF,DewpointHighF,DewpointAvgF,DewpointLowF,HumidityHigh,HumidityAvg,HumidityLow,PressureMaxIn,PressureMinIn,WindSpeedMaxMPH,WindSpeedAvgMPH,GustSpeedMaxMPH,PrecipitationSumIn
2014-1-1,26.9,19.6,12.1,15.3,9.7,4.2,86,66,40,30.33,30.12,7,2,15,0.00
2014-1-2,20.6,10.3,-0.4,17.8,8.6,-2.2,96,92,79,30.31,29.86,9,4,18,0.00
2014-1-3,11.6,4.7,-2.5,10.9,3.2,-4.3,97,93,89,30.35,29.72,12,4,20,0.00
2014-1-4,24.1,9.7,-9.5,23.3,7.0,-12.0,99,89,35,30.45,30.20,10,3,17,0.00
2014-1-5,34.6,24.6,8.9,34.5,23.6,8.2,100,96,56,30.26,29.90,5,1,10,0.15
2014-1-6,56.9,41.8,28.2,56.1,39.9,18.3,100,93,65,29.90,29.25,10,4,20,0.45
2014-1-7,28.0,14.5,8.3,18.2,-0.3,-34.0,67,51,14,30.15,29.46,13,6,24,0.00
2014-1-8,22.3,13.7,6.5,4.4,-2.0,-20.5,65,51,14,30.40,30.14,9,-395,16,0.00
2014-1-9,30.1,16.7,8.9,15.2,3.6,-7.4,95,58,40,30.59,30.36,3,-657,7,0.00
2014-1-10,33.2,24.1,8.5,33.0,23.3,7.2,100,96,90,30.55,30.22,3,0,5,0.00
2014-1-11,58.0,42.3,32.3,57.6,42.2,32.3,100,99,97,30.22,29.23,8,2,13,0.36
2014-1-12,53.8,42.5,33.5,53.3,35.6,18.5,98,77,48,29.91,29.23,12,4,20,0.03
2014-1-13,52.4,40.1,28.2,42.4,30.9,15.1,97,71,33,30.07,29.85,10,3,15,0.00
2014-1-14,48.3,45.1,41.4,46.4,44.3,41.3,100,97,83,29.86,29.57,7,2,13,0.62
2014-1-15,46.6,36.1,28.7,41.3,34.3,25.0,100,94,58,29.97,29.70,6,1,9,0.01
2014-1-16,37.7,34.1,29.9,37.6,34.1,29.8,100,100,100,29.90,29.80,2,0,4,0.01
2014-1-17,45.1,34.4,28.3,35.1,31.2,4.5,100,90,22,29.93,29.86,8,1,12,0.00
2014-1-18,33.7,31.8,28.2,33.4,31.5,27.5,100,99,94,29.88,29.59,3,0,5,0.05
2014-1-19,33.2,31.0,28.3,33.2,29.0,23.8,100,92,79,29.69,29.49,5,2,9,0.00
2014-1-20,39.3,32.7,21.2,29.9,25.7,9.8,90,75,51,29.84,29.46,10,3,17,0.09
2014-1-21,21.8,13.6,10.1,10.9,4.1,-2.5,89,66,49,30.03,29.84,9,3,17,0.00
2014-1-22,16.8,11.7,5.4,7.1,-1.3,-5.5,84,56,43,29.86,29.62,8,4,18,0.00
2014-1-23,22.4,10.5,3.1,1.5,-3.1,-20.1,74,55,14,30.10,29.85,6,2,12,0.00
2014-1-24,18.4,10.2,4.8,2.2,-1.6,-6.0,78,59,34,30.21,30.00,7,3,13,0.00
2014-1-25,35.9,24.9,12.7,28.9,16.0,0.2,95,69,53,29.99,29.28,14,5,23,0.00
2014-1-26,25.9,19.4,13.9,20.4,5.9,-13.9,81,56,21,29.84,29.30,11,5,23,0.00
2014-1-27,43.4,27.8,17.8,38.4,18.6,4.9,91,70,40,29.95,29.48,11,3,21,0.13
2014-1-28,20.4,16.2,10.2,7.2,-1.4,-7.4,58,46,33,30.25,29.95,8,3,18,0.00
2014-1-29,27.2,19.2,13.6,9.7,1.0,-19.4,77,47,13,30.18,29.91,9,3,25,0.00
2014-1-30,29.1,18.8,10.8,12.2,5.7,-1.0,75,56,41,30.38,30.15,7,2,10,0.00
2014-1-31,40.9,30.9,17.5,25.0,18.9,11.1,88,63,37,30.15,29.96,8,2,15,0.00
2014-2-1,44.9,33.9,24.6,30.2,24.5,10.6,88,69,31,30.30,29.99,6,2,12,0.00
2014-2-2,49.6,38.8,30.1,41.3,35.1,28.6,96,86,61,30.01,29.82,5,1,8,0.05
2014-2-3,37.4,30.9,19.5,33.5,26.4,18.4,96,84,61,30.25,30.01,6,2,12,0.00
2014-2-4,34.3,24.4,13.9,26.4,19.6,-0.7,96,83,24,30.41,30.24,5,1,9,0.01
2014-2-5,29.6,26.0,22.6,27.9,24.5,22.0,97,94,83,30.26,29.61,8,2,15,0.00
2014-2-6,28.4,19.0,10.3,23.3,16.2,-9.6,100,90,19,30.22,29.92,7,2,16,0.00
2014-2-7,30.2,16.3,1.5,14.3,9.0,-2.4,97,75,26,30.21,30.10,8,1,14,0.00
2014-2-8,29.5,20.0,8.7,13.9,6.4,-14.8,90,57,17,30.25,30.08,8,2,14,0.00
2014-2-9,32.3,25.2,19.1,26.0,17.0,8.1,96,72,49,30.13,29.91,6,2,10,0.00
2014-2-10,28.7,21.8,6.8,25.1,13.8,-7.3,98,74,21,30.16,29.86,9,2,17,0.00
2014-2-11,24.5,8.6,-0.6,9.3,3.1,-14.3,94,80,22,30.26,30.16,7,1,13,0.00
2014-2-12,28.9,18.4,10.5,9.4,5.9,-4.0,87,61,28,30.44,30.38,4,1,7,0.00
2014-2-13,33.2,25.3,11.0,33.1,23.7,7.9,100,93,79,30.38,29.02,10,4,24,0.00
2014-2-14,34.4,32.1,28.3,32.6,28.3,22.3,99,86,71,29.69,28.81,13,5,28,0.36
2014-2-15,35.8,28.0,20.1,31.3,25.2,19.4,99,89,63,29.82,29.46,7,1,17,0.04
2014-2-16,32.1,25.5,19.5,28.7,19.5,4.2,99,79,32,29.93,29.44,11,4,22,0.00
2014-2-17,26.1,17.2,5.2,25.8,17.1,5.2,100,100,67,30.31,29.93,9,4,20,0.00
2014-2-18,29.6,17.9,2.0,29.4,17.9,1.6,100,100,99,30.33,29.87,5,1,12,0.00
2014-2-19,33.3,27.0,14.0,33.3,27.0,13.9,100,100,99,30.06,29.69,5,1,9,0.01
2014-2-20,46.8,34.2,23.7,39.3,30.1,16.4,100,87,34,30.18,29.79,7,2,12,0.96
2014-2-21,38.9,35.7,30.7,38.8,35.4,30.7,100,99,96,30.13,29.63,4,1,9,0.50
2014-2-22,51.2,39.8,26.5,35.3,27.8,-3.4,100,68,13,29.92,29.78,13,4,20,0.01
2014-2-23,48.8,37.8,26.5,31.8,28.3,25.5,97,71,41,29.95,29.72,8,1,14,0.00
2014-2-24,39.5,31.1,22.4,31.3,17.2,7.4,93,56,37,29.90,29.69,10,4,18,0.00
2014-2-25,29.0,21.4,12.1,14.9,9.7,0.1,97,62,31,29.93,29.83,10,3,22,0.00
2014-2-26,30.9,18.5,8.5,13.2,6.5,-4.5,96,62,34,29.90,29.71,10,2,19,0.00
2014-2-27,28.9,17.2,6.6,20.4,5.2,-7.2,82,61,23,29.86,29.54,11,2,18,0.00
2014-2-28,27.1,15.0,7.2,3.5,-3.4,-14.3,82,46,23,30.39,29.86,8,2,16,0.00
2014-3-1,34.0,20.9,1.6,23.5,9.3,-6.9,92,64,19,30.41,30.03,9,2,13,0.00
2014-3-2,37.5,33.1,26.8,26.5,22.3,14.4,79,64,56,30.04,29.92,5,2,8,0.00
2014-3-3,27.7,19.8,8.6,15.5,3.9,-3.9,65,50,35,30.25,29.96,8,3,20,0.00
2014-3-4,29.5,18.4,3.2,12.4,1.7,-4.6,81,50,30,30.33,30.19,6,2,10,0.00
2014-3-5,26.0,22.0,14.1,21.2,16.8,6.9,98,80,49,30.46,30.19,5,2,9,0.00
2014-3-6,32.7,18.4,3.6,6.9,-1.5,-25.3,77,45,9,30.59,30.46,5,2,10,0.00
2014-3-7,34.0,31.2,29.8,28.5,26.3,17.6,89,82,61,30.08,29.92,2,0,5,0.00
2014-3-8,52.1,36.4,20.2,28.5,25.2,19.2,97,67,35,29.92,29.65,8,2,17,0.00
2014-3-9,38.7,32.1,25.5,20.3,14.1,-3.8,67,48,27,29.90,29.83,9,2,17,0.00
2014-3-10,43.5,34.2,26.5,32.8,25.0,14.5,95,70,46,29.87,29.59,7,2,12,0.00
2014-3-11,55.6,41.9,30.5,35.4,31.6,27.7,93,70,35,29.69,29.47,10,3,18,0.00
2014-3-12,44.5,38.0,33.9,38.8,35.3,29.9,98,89,75,29.69,29.01,6,2,13,0.45
2014-3-13,36.2,21.7,15.6,33.8,15.5,0.7,97,78,47,29.90,28.99,10,5,22,0.01
2014-3-14,37.9,25.1,8.4,27.3,10.5,-0.6,85,54,35,30.12,29.86,9,4,15,0.00
2014-3-15,54.4,42.6,35.1,37.5,31.6,24.1,88,66,38,29.88,29.61,11,5,20,0.01
2014-3-16,40.3,29.9,22.2,24.0,10.2,1.6,63,44,29,30.16,29.82,10,4,25,0.00
2014-3-17,31.7,21.6,14.0,11.6,1.3,-4.1,67,42,26,30.16,30.01,8,3,14,0.00
2014-3-18,40.4,25.8,13.9,22.9,11.5,0.7,91,56,32,30.31,30.11,8,2,12,0.00
2014-3-19,41.9,31.2,19.1,31.4,25.6,18.5,97,81,55,30.35,29.97,9,2,16,0.00
2014-3-21,42.7,37.7,31.8,25.7,24.2,22.6,70,58,49,29.99,29.74,10,5,17,0.00
2014-3-22,54.9,37.8,24.6,40.8,27.1,22.0,92,66,39,30.01,29.61,12,3,26,0.02
2014-3-23,41.4,34.2,22.8,27.6,18.0,2.7,86,53,30,30.04,29.87,10,4,21,0.00
2014-3-24,32.9,23.0,14.4,11.5,3.5,0.3,68,44,28,30.13,30.00,8,3,17,0.00
2014-3-25,38.1,27.3,12.4,20.3,12.8,8.7,93,57,31,30.11,29.90,8,2,13,0.00
2014-3-26,33.1,30.5,28.2,19.9,13.6,7.2,63,50,34,29.95,29.56,13,6,29,0.00
2014-3-27,44.6,32.0,19.2,22.2,6.4,1.1,63,35,21,30.26,29.82,9,4,24,0.00
2014-3-28,55.1,44.2,34.8,47.5,34.5,13.6,91,69,44,30.20,29.90,12,4,18,0.01
2014-3-29,50.4,43.5,35.5,45.2,39.4,33.5,93,85,68,30.20,29.94,6,2,12,0.55
2014-3-30,40.0,38.0,34.8,38.1,35.9,32.9,93,91,90,30.01,29.61,10,5,18,2.11
2014-3-31,41.7,36.3,33.1,37.1,27.2,-55.2,95,78,2,29.97,29.66,8,4,18,1.19
2014-4-1,56.4,42.1,32.4,35.3,31.5,28.6,86,68,42,30.07,29.96,8,3,13,0.00
2014-4-2,59.0,40.9,28.4,38.0,31.3,18.4,94,72,30,30.09,29.96,7,1,12,0.00
2014-4-3,53.8,39.9,24.8,39.8,27.2,23.7,97,65,33,30.09,30.00,8,2,15,0.00
2014-4-4,49.1,39.5,32.2,36.1,32.2,29.7,91,76,54,30.12,29.88,10,2,14,0.20
2014-4-5,50.3,40.6,37.0,42.4,34.3,26.5,96,79,50,29.92,29.66,12,3,21,0.20
2014-4-6,57.0,42.8,32.9,30.6,24.4,19.3,80,51,24,30.13,29.88,8,3,15,0.00
2014-4-7,60.7,45.8,30.2,38.7,28.3,18.6,89,56,23,30.19,29.89,8,3,14,0.03
2014-4-8,65.5,52.2,42.6,57.1,45.9,35.3,91,79,52,29.89,29.26,11,4,21,0.38
2014-4-9,55.7,44.6,32.8,39.1,29.5,12.4,93,59,28,29.92,29.47,10,3,18,0.00
2014-4-10,62.2,45.4,26.3,33.5,24.6,14.9,90,48,20,30.10,29.92,14,5,22,0.00
2014-4-11,72.0,57.3,48.3,53.7,42.7,33.6,91,59,38,29.97,29.86,12,4,20,0.05
2014-4-12,69.1,54.5,40.7,47.3,38.5,30.3,92,61,25,30.16,29.93,9,2,16,0.05
2014-4-13,58.7,47.0,41.2,48.7,42.2,36.3,89,83,67,30.24,29.99,5,1,10,0.06
2014-4-14,76.4,60.3,39.5,59.6,50.4,37.3,92,72,44,30.00,29.82,17,7,30,0.00
2014-4-15,67.0,61.0,42.1,60.3,55.6,38.6,88,82,77,29.86,29.48,15,8,23,0.37
2014-4-16,41.8,35.3,28.2,38.6,23.7,16.0,95,65,39,30.56,29.69,10,5,21,0.33
2014-4-17,43.2,34.6,28.1,29.1,23.8,17.2,92,65,52,30.76,30.56,7,2,15,0.00
2014-4-18,47.3,37.0,26.6,35.1,31.4,25.2,94,81,60,30.62,30.20,7,2,217,0.00
2014-4-19,60.0,46.2,31.7,39.1,32.5,27.8,93,62,35,30.36,30.12,10,3,23,0.00
2014-4-20,56.2,43.1,28.4,34.7,27.4,14.6,91,58,27,30.47,30.30,8,2,72,0.00
2014-4-21,71.8,51.4,30.1,36.4,29.8,23.4,92,51,16,30.29,29.79,8,3,14,0.00
2014-4-22,76.4,59.6,43.6,52.4,42.9,36.9,86,58,29,29.79,29.43,10,4,16,0.03
2014-4-23,54.7,50.3,45.3,49.9,43.4,36.3,84,77,65,29.58,29.39,11,4,22,0.51
2014-4-24,56.2,47.7,40.3,36.1,28.5,21.8,70,47,34,29.88,29.57,13,6,28,0.00
2014-4-25,66.3,50.7,36.9,37.4,30.9,23.4,79,49,22,29.97,29.78,9,2,14,0.00
2014-4-26,49.9,44.7,41.4,41.4,37.8,34.1,87,77,54,29.84,29.74,5,2,9,0.25
2014-4-27,51.3,44.1,40.0,43.9,39.4,36.5,87,83,75,30.00,29.81,6,2,14,0.15
2014-4-28,60.0,47.8,39.0,44.5,39.8,35.3,86,74,52,30.19,29.95,7,3,12,0.00
2014-4-29,45.6,42.3,40.2,40.3,37.3,35.7,86,82,75,30.48,30.19,6,3,15,0.00
2014-4-30,46.6,41.8,39.2,40.3,37.3,35.3,86,83,77,30.49,30.14,8,2,13,0.37
2014-5-1,64.7,50.7,41.4,53.4,42.5,36.5,84,73,64,30.14,29.61,5,1,8,0.58
2014-5-2,67.0,56.7,43.5,47.7,41.5,28.0,75,58,24,29.76,29.62,10,3,18,0.01
2014-5-3,65.9,55.9,42.8,48.0,42.8,35.2,75,62,41,29.83,29.68,8,2,16,0.00
2014-5-4,59.5,53.3,47.9,46.2,41.2,35.8,74,63,46,29.68,29.49,12,4,23,0.00
2014-5-5,63.7,54.8,48.4,47.3,43.3,40.6,75,65,49,29.80,29.57,8,4,18,0.00
2014-5-6,61.6,56.5,47.5,42.9,33.4,26.6,70,42,29,30.00,29.79,10,4,18,0.00
2014-5-7,69.7,53.4,37.2,42.9,33.5,27.2,78,50,22,30.13,29.99,9,2,15,0.00
2014-5-8,71.9,54.5,37.9,46.5,38.7,31.6,77,58,31,30.14,30.02,9,2,14,0.00
2014-5-9,54.0,51.7,49.4,44.8,42.5,40.4,73,70,65,30.20,30.04,4,1,7,0.00
2014-5-10,68.2,61.3,52.3,50.5,46.2,41.4,67,57,49,30.04,29.72,8,3,12,0.12
2014-5-11,79.9,69.0,61.1,52.6,42.3,32.8,67,40,18,29.98,29.74,8,3,16,0.00
2014-5-12,86.8,68.8,47.9,54.2,44.9,38.8,73,46,22,30.09,29.91,9,2,20,0.00
2014-5-13,53.3,49.8,45.8,44.8,41.2,38.0,89,72,68,30.29,30.09,5,2,14,0.00
2014-5-14,69.5,55.8,44.2,54.8,45.7,37.0,75,68,55,30.29,30.20,7,2,12,0.00
2014-5-15,79.5,71.2,59.5,66.8,57.6,43.6,68,61,50,30.24,30.15,9,5,15,0.00
2014-5-16,74.1,65.4,61.5,61.3,47.0,41.5,64,51,43,30.16,29.94,9,4,20,0.31
2014-5-17,74.2,65.4,55.7,57.4,42.4,33.6,67,43,32,30.03,29.81,66,4,72,0.82
2014-5-18,70.6,61.4,49.8,51.6,44.1,35.1,71,54,28,30.05,29.96,7,2,15,0.02
2014-5-19,64.5,55.9,48.7,47.5,37.5,27.6,72,50,36,30.05,29.96,10,3,19,0.11
2014-5-20,73.9,59.4,47.1,53.6,39.8,26.3,69,48,35,29.97,29.89,9,2,17,0.00
2014-5-21,73.8,58.8,45.4,60.7,42.4,24.5,70,54,38,29.96,29.88,7,2,12,0.00
2014-5-22,65.3,55.7,48.4,54.6,30.6,22.7,69,39,28,29.93,29.84,7,1,12,0.14
2014-5-23,61.4,55.2,50.5,41.7,26.5,18.1,49,33,24,29.96,29.84,5,1,8,0.05
2014-5-24,67.9,55.9,50.3,58.2,30.3,15.3,74,40,22,30.02,29.92,4,2,7,0.22
2014-5-25,72.3,57.8,50.5,60.9,30.6,8.5,75,39,16,30.06,29.96,6,1,10,0.01
2014-5-26,78.6,65.5,50.7,64.1,40.9,6.2,73,44,14,29.95,29.75,8,2,15,0.01
2014-5-27,69.2,56.9,47.4,52.8,23.8,-4.5,55,30,7,29.93,29.76,5,2,10,0.29
2014-5-28,48.8,46.8,39.4,21.0,-5.7,-27.8,34,12,3,30.18,29.88,6,2,13,0.16
2014-5-29,67.5,51.5,37.1,51.4,23.3,-63.4,80,41,1,30.21,30.10,6,1,11,0.01
2014-5-30,75.0,60.5,44.4,57.7,27.2,-47.4,76,39,1,30.11,29.94,8,2,113,0.04
2014-5-31,65.2,54.0,43.8,55.1,21.9,-45.1,81,39,1,30.26,30.02,5,2,12,0.00
2014-6-1,77.2,59.4,40.7,57.1,34.1,-25.8,77,42,3,30.30,30.18,7,2,11,0.00
2014-6-2,85.3,66.6,46.4,62.8,45.7,13.8,75,48,25,30.19,29.95,8,2,13,0.00
2014-6-3,80.3,65.8,52.9,67.1,48.4,-1.7,76,56,9,29.99,29.87,8,2,15,0.00
2014-6-4,65.1,59.9,56.1,53.5,35.8,4.8,77,45,12,29.87,29.74,5,1,9,0.01
2014-6-5,60.7,57.5,51.2,5.8,-32.1,-38.2,12,1,1,29.76,29.61,5,1,25,0.48
2014-6-6,74.3,63.1,51.0,61.9,23.5,-38.9,78,42,1,29.84,29.65,8,2,20,0.00
2014-6-7,83.6,67.3,51.5,66.1,35.2,-51.0,76,42,1,29.90,29.82,6,1,113,0.00
2014-6-8,82.0,65.6,55.0,65.6,23.5,-29.6,75,33,2,29.91,29.83,4,1,8,0.00
2014-6-9,79.3,68.0,57.8,69.4,29.7,-55.7,76,42,1,29.95,29.86,7,2,12,0.00
2014-6-10,79.1,67.4,59.0,69.8,25.6,-44.4,72,35,1,30.08,29.89,6,2,13,0.02
2014-6-11,73.9,62.8,55.0,59.9,42.3,-10.3,80,51,6,30.15,30.07,6,2,12,0.00
2014-6-12,70.8,62.4,57.3,62.2,46.3,35.1,74,56,39,30.13,30.03,6,2,12,0.00
2014-6-13,63.1,60.3,58.3,40.9,-17.0,-31.5,46,8,1,30.03,29.76,5,2,12,0.97
2014-6-14,73.3,63.9,57.5,64.9,10.5,-46.1,81,25,1,29.87,29.77,5,1,12,0.00
2014-6-15,76.3,67.9,56.3,59.6,53.7,34.7,80,61,36,30.02,29.87,8,3,15,0.00
2014-6-16,82.8,66.1,51.2,59.1,43.7,-21.2,79,47,4,30.10,29.97,6,1,9,0.00
2014-6-17,87.7,74.1,61.9,75.2,58.0,24.0,74,58,16,30.02,29.82,7,3,11,0.00
2014-6-18,83.2,76.0,68.3,70.1,45.2,-11.9,74,44,3,29.90,29.67,10,4,19,0.02
2014-6-19,81.5,73.1,59.7,65.1,48.2,16.3,82,43,17,29.94,29.86,8,3,14,0.00
2014-6-20,73.7,63.5,51.7,55.6,45.6,21.3,78,53,29,29.94,29.84,8,3,15,0.00
2014-6-21,74.3,64.2,48.5,55.6,46.6,24.3,77,53,38,29.93,29.84,6,2,12,0.00
2014-6-22,76.6,62.6,47.4,57.6,42.4,-13.7,77,50,6,30.00,29.89,7,2,12,0.00
2014-6-23,81.2,66.5,50.1,63.1,33.8,-51.1,73,39,1,30.12,29.99,7,2,11,0.00
2014-6-24,84.2,70.4,58.1,67.4,57.0,37.2,78,62,42,30.12,29.95,10,4,18,0.00
2014-6-25,88.3,75.9,64.4,77.0,62.4,39.8,75,63,37,29.97,29.80,8,4,14,0.00
2014-6-26,77.9,69.3,57.8,52.9,28.3,-25.7,46,24,2,29.98,29.76,4,2,10,0.39
2014-6-27,80.4,65.7,52.9,59.0,31.3,-34.5,75,37,1,30.16,29.97,6,2,12,0.00
2014-6-28,86.1,65.4,50.2,65.9,30.7,-48.8,72,35,1,30.22,30.15,4,1,8,0.00
2014-6-29,87.5,71.2,53.1,68.3,29.7,-50.5,73,36,1,30.21,30.04,6,2,12,0.00
2014-6-30,88.3,75.4,60.8,80.0,59.8,22.4,80,58,22,30.06,29.87,9,4,14,0.00
2014-7-1,88.8,78.0,66.8,77.8,57.8,8.0,71,53,9,29.90,29.73,9,4,14,0.00
2014-7-2,92.0,79.0,71.8,81.3,39.1,-56.8,71,36,1,29.90,29.75,9,4,19,0.01
2014-7-3,91.1,76.9,69.0,79.9,13.1,-29.1,69,16,1,29.98,29.83,9,2,19,0.95
2014-7-4,75.3,68.5,63.8,39.0,0.2,-33.4,36,13,1,29.96,29.76,6,1,12,1.44
2014-7-5,79.7,67.0,57.1,62.7,43.6,-6.3,72,44,7,29.96,29.73,10,4,20,0.48
2014-7-6,83.0,72.7,59.1,63.8,56.5,31.4,73,57,21,29.96,29.81,11,4,18,0.00
2014-7-7,87.1,73.5,67.4,80.9,50.1,0.5,69,25,6,29.83,29.66,10,3,16,0.07
2014-7-8,89.0,78.0,68.5,77.2,62.4,-43.5,69,29,2,29.75,29.63,9,4,15,0.15
2014-7-9,87.6,77.4,67.0,74.1,23.4,-43.9,72,32,1,29.94,29.60,8,4,19,0.05
2014-7-10,81.3,72.1,63.4,66.7,33.6,-33.5,70,37,1,30.10,29.90,5,1,10,0.02
2014-7-11,79.8,69.3,60.3,66.1,28.1,-36.3,72,36,1,30.19,30.10,5,2,9,0.00
2014-7-12,87.3,71.1,55.8,69.7,22.6,-39.2,71,32,1,30.18,30.06,5,1,8,0.00
2014-7-13,85.3,75.3,66.0,73.4,50.4,-18.9,69,47,2,30.08,29.85,11,5,20,0.00
2014-7-14,86.9,76.7,70.1,73.1,12.2,-19.6,65,18,2,29.87,29.80,6,3,12,0.07
2014-7-15,86.1,76.7,71.2,63.6,6.0,-20.5,46,8,1,29.84,29.70,74,6,87,3.02
2014-7-16,76.2,72.7,67.1,75.0,13.6,-17.3,2,1,2,29.81,29.72,6,1,71,0.03
2014-7-17,82.3,70.1,61.1,67.0,48.2,-45.1,68,33,2,30.04,29.81,5,1,9,0.00
2014-7-18,81.6,67.7,55.1,65.1,23.9,-42.6,69,31,1,30.18,30.03,5,1,8,0.00
2014-7-19,78.0,67.2,56.9,64.0,0.2,-44.9,67,19,1,30.23,30.17,4,1,8,0.00
2014-7-20,79.9,67.9,57.6,67.3,17.3,-31.7,70,31,1,30.18,30.10,5,1,10,0.00
2014-7-21,82.0,68.8,59.2,68.2,16.0,-33.0,69,29,1,30.17,30.10,5,1,9,0.00
2014-7-22,89.0,74.5,58.7,76.8,33.4,-19.8,69,34,2,30.12,29.95,5,2,9,0.00
2014-7-23,90.5,79.1,69.8,78.9,23.9,-46.5,69,29,1,29.95,29.69,8,4,15,0.18
2014-7-24,79.2,71.1,62.5,52.8,11.6,-32.9,39,12,1,29.88,29.72,4,1,9,0.00
2014-7-25,81.5,67.9,55.1,67.1,10.0,-47.7,67,26,1,29.95,29.88,5,1,9,0.00
2014-7-26,82.8,70.8,57.5,68.6,25.9,-30.7,68,30,1,29.94,29.82,8,2,16,0.00
2014-7-27,77.4,70.6,63.3,-24.9,-29.4,-34.2,1,1,1,29.87,29.62,7,2,14,0.14
2014-7-28,84.6,71.6,64.2,64.6,-3.4,-32.3,52,10,1,29.65,29.40,8,2,15,0.96
2014-7-29,77.4,67.4,60.6,64.7,25.9,-19.1,67,29,3,29.91,29.51,7,2,14,0.01
2014-7-30,77.5,63.4,55.2,66.8,14.3,-13.3,70,23,3,30.00,29.90,4,0,9,0.00
2014-7-31,76.0,59.7,53.7,64.6,33.2,-8.6,69,37,4,30.12,30.00,5,1,11,0.00
2014-8-1,81.9,65.9,60.0,67.1,45.7,0.9,70,56,6,30.17,30.11,5,1,9,0.04
2014-8-2,78.3,67.6,61.8,69.7,46.7,-9.7,80,49,5,30.16,30.08,6,2,11,0.03
2014-8-3,82.1,69.0,61.5,70.2,62.0,-29.7,99,82,2,30.09,30.01,4,1,7,0.00
2014-8-4,85.3,74.7,64.9,84.9,74.3,61.7,100,99,70,30.00,29.94,4,1,8,0.09
2014-8-5,87.9,78.2,67.1,87.8,71.3,55.8,100,82,39,29.99,29.85,5,2,8,0.02
2014-8-6,81.3,73.8,65.7,71.2,61.2,40.6,89,66,23,29.86,29.74,7,2,16,0.00
2014-8-7,77.0,70.5,62.0,67.5,55.3,39.8,88,58,35,29.90,29.81,6,2,10,0.02
2014-8-8,81.0,75.4,63.2,65.0,55.0,41.0,83,50,36,29.99,29.92,5,1,10,0.00
2014-8-9,84.9,68.3,55.4,67.0,57.0,39.8,95,70,28,30.05,29.97,5,1,10,0.00
2014-8-10,85.7,74.1,60.8,70.4,56.5,35.6,88,57,24,30.09,30.04,5,1,8,0.00
2014-8-11,86.5,71.6,58.1,64.1,59.5,56.8,96,68,36,30.11,30.04,7,2,11,0.00
2014-8-12,81.1,70.5,58.9,63.9,60.4,56.9,94,71,47,30.09,30.00,7,2,12,0.00
2014-8-13,68.2,65.8,62.4,65.7,63.5,61.3,98,92,80,30.00,29.58,10,4,19,1.60
2014-8-14,62.5,59.1,53.1,61.4,57.5,50.8,97,94,86,29.84,29.63,3,1,8,0.01
2014-8-15,70.5,61.6,52.3,55.9,53.2,50.2,96,75,50,29.88,29.79,6,2,11,0.01
2014-8-16,75.9,65.4,54.8,57.8,53.8,50.0,90,67,40,29.93,29.87,9,2,14,0.00
2014-8-17,75.5,66.4,57.4,60.8,57.3,46.2,95,73,36,29.87,29.73,6,2,13,0.00
2014-8-18,74.8,64.0,53.4,55.4,52.0,40.1,93,67,34,29.86,29.75,7,2,14,0.00
2014-8-19,79.4,62.3,47.3,57.3,51.8,45.7,95,71,39,29.93,29.84,4,1,8,0.00
2014-8-20,80.9,63.9,51.7,62.7,54.5,43.9,95,74,45,30.03,29.92,5,1,10,0.00
2014-8-21,76.8,63.4,52.3,64.6,57.1,50.3,97,81,47,30.06,30.01,4,1,6,0.01
2014-8-22,72.5,64.4,58.9,64.9,60.9,58.0,97,88,70,30.08,30.03,4,2,10,0.51
2014-8-23,73.8,64.3,56.1,61.4,56.7,53.8,95,77,52,30.10,30.05,5,2,11,0.00
2014-8-24,82.2,65.8,52.7,64.1,57.3,51.3,97,76,42,30.11,30.05,4,1,8,0.00
2014-8-25,87.8,71.0,57.2,66.3,60.3,55.7,96,72,36,30.12,30.05,4,1,8,0.00
2014-8-26,89.6,72.6,58.2,68.2,62.5,56.7,96,73,37,30.12,29.99,5,1,8,0.00
2014-8-27,88.8,75.9,61.7,70.2,65.9,59.9,94,72,51,30.00,29.80,7,3,13,0.00
2014-8-28,76.6,70.2,60.9,67.7,55.9,47.1,91,61,38,29.96,29.77,8,3,17,0.00
2014-8-29,75.3,63.2,51.9,59.0,53.0,48.5,92,70,47,30.24,29.95,6,2,10,0.00
2014-8-30,78.2,67.3,50.4,59.0,55.5,48.6,94,67,46,30.25,30.09,7,3,12,0.00
2014-8-31,82.8,73.4,64.3,72.9,67.4,59.0,96,81,67,30.09,29.90,11,4,16,0.32
2014-9-1,87.8,76.1,68.9,71.8,69.5,67.0,98,81,50,29.95,29.86,5,1,9,0.01
2014-9-2,90.1,75.4,67.3,73.9,70.5,66.2,97,85,54,29.90,29.69,7,1,13,0.28
2014-9-3,81.9,74.2,62.3,71.4,61.3,50.8,93,66,41,30.03,29.68,6,2,15,0.01
2014-9-4,84.5,75.9,66.3,70.1,60.2,54.0,81,59,38,30.13,30.05,6,2,9,0.00
2014-9-5,87.9,79.6,63.6,72.0,67.9,56.3,89,68,51,30.10,29.93,8,4,15,0.00
2014-9-6,89.7,79.1,70.2,73.8,71.1,57.6,91,77,54,29.93,29.71,8,4,21,1.10
2014-9-7,75.8,69.1,54.9,62.0,51.5,36.3,92,56,23,30.17,30.04,6,1,12,0.39
2014-9-8,74.2,61.9,52.3,56.3,52.5,50.3,97,73,43,30.34,30.17,5,1,15,0.01
2014-9-9,70.2,58.9,52.6,59.5,53.0,51.3,95,82,53,30.33,30.27,6,2,13,0.00
2014-9-10,72.8,65.3,57.8,65.3,58.0,44.6,94,78,41,30.13,30.01,4,1,8,0.00
2014-9-11,75.1,71.6,63.7,68.7,64.3,54.9,93,77,61,29.86,29.73,8,3,14,0.00
2014-9-12,69.3,60.8,57.0,58.2,50.8,39.4,86,70,33,30.20,29.86,8,3,15,0.00
2014-9-13,60.6,52.4,47.7,57.8,46.4,43.0,98,79,73,30.25,30.07,5,2,9,0.68
2014-9-14,64.0,54.1,46.6,55.9,47.3,42.4,99,79,48,30.19,30.06,7,2,15,0.01
2014-9-15,66.0,51.7,39.9,49.7,44.2,38.6,97,78,44,30.20,30.06,5,1,8,0.00
2014-9-16,61.1,53.1,46.2,57.4,50.7,44.7,97,91,76,30.07,29.91,2,0,4,0.03
2014-9-17,70.7,55.5,43.5,52.5,47.1,43.0,99,76,38,29.98,29.89,6,1,10,0.01
2014-9-18,72.0,64.5,47.6,61.8,49.0,35.6,91,57,33,30.11,29.91,7,3,11,0.00
2014-9-19,59.7,48.4,36.7,41.4,35.6,16.2,90,64,20,30.38,30.12,5,2,11,0.00
2014-9-20,72.2,51.2,33.4,55.6,44.6,31.7,96,79,55,30.35,30.05,8,2,14,0.00
2014-9-21,80.5,66.3,52.2,69.9,62.6,50.5,98,88,55,30.05,29.53,6,1,11,0.17
2014-9-22,70.6,65.4,55.8,66.6,53.3,27.6,98,67,29,29.96,29.49,9,4,17,0.00
2014-9-23,67.7,57.7,48.5,54.8,46.5,34.5,95,67,32,30.38,30.20,6,2,11,0.00
2014-9-24,68.4,54.6,42.7,55.1,47.8,41.7,98,79,46,30.58,30.39,5,1,10,0.00
2014-9-25,63.2,52.8,44.9,52.8,48.9,43.5,98,87,66,30.51,30.22,3,0,6,0.01
2014-9-26,75.2,58.9,45.8,61.7,52.5,40.1,99,81,29,30.22,30.09,5,1,9,0.00
2014-9-27,83.3,63.4,48.2,63.7,55.0,47.2,97,77,39,30.14,30.08,4,1,8,0.01
2014-9-28,86.1,66.9,51.8,64.0,58.6,50.8,97,77,42,30.12,29.93,5,1,9,0.00
2014-9-29,76.5,61.9,55.6,62.8,57.7,54.9,98,87,53,30.00,29.91,5,1,10,0.02
2014-9-30,56.7,55.2,54.3,55.0,54.3,53.5,98,96,92,30.01,29.96,4,1,8,0.02
2014-10-1,56.4,56.1,55.6,55.9,55.4,55.1,99,97,96,30.09,30.02,5,3,10,0.14
2014-10-2,56.5,53.7,44.6,55.3,52.3,44.0,99,95,85,30.14,30.08,6,2,11,0.00
2014-10-3,62.0,51.5,42.3,52.8,48.2,42.2,99,89,69,30.11,29.87,5,1,45,0.00
2014-10-4,61.3,57.3,52.3,53.6,43.2,30.5,99,61,39,29.88,29.50,6,2,152,0.00
2014-10-5,62.2,53.1,39.9,54.0,41.6,30.7,95,67,35,29.91,29.51,7,2,15,0.00
2014-10-6,67.5,50.6,33.5,49.0,37.7,19.2,97,63,37,30.11,29.91,7,2,13,0.00
2014-10-7,73.3,62.3,50.0,61.7,53.1,37.6,98,73,47,30.11,29.93,9,3,16,0.00
2014-10-8,70.8,63.3,53.7,61.8,54.4,39.9,94,74,42,29.94,29.66,10,3,17,0.00
2014-10-9,64.7,52.4,40.9,50.1,38.4,32.3,91,61,34,29.95,29.83,10,2,16,0.00
2014-10-10,62.2,47.1,38.3,47.9,38.3,35.5,94,74,42,30.04,29.95,6,1,11,0.00
2014-10-11,56.6,42.2,38.6,55.4,41.2,37.9,98,96,94,30.09,30.04,0,0,1,0.00
2014-10-13,60.8,58.9,48.2,53.6,51.0,37.8,84,75,66,30.27,30.21,5,2,9,0.00
2014-10-14,77.3,64.7,53.5,67.3,59.0,51.5,95,82,60,30.21,30.10,10,2,18,0.00
2014-10-15,80.4,67.4,55.4,67.2,62.2,50.3,99,84,39,30.11,29.93,7,2,15,0.00
2014-10-16,70.5,67.1,64.6,68.6,65.9,63.4,97,95,90,29.93,29.66,7,3,13,0.00
2014-10-17,72.7,65.8,58.1,56.7,50.2,40.7,85,57,37,29.65,29.58,9,4,16,0.00
2014-10-18,70.3,59.9,53.9,60.1,53.2,44.7,97,78,66,29.63,29.46,7,2,14,0.00
2014-10-19,52.8,47.6,41.3,41.2,32.7,25.9,65,56,50,29.92,29.71,9,4,19,0.00
2014-10-20,57.6,45.0,32.5,40.0,32.1,16.1,84,61,39,30.01,29.91,9,2,13,0.00
2014-10-21,61.8,51.0,42.6,56.8,47.9,33.5,96,89,53,29.97,29.87,6,2,12,0.00
2014-10-22,52.6,49.6,47.9,51.9,48.6,47.1,98,96,93,30.02,29.79,11,5,23,0.00
2014-10-23,52.5,49.7,47.1,49.2,39.9,26.8,99,72,39,29.80,29.59,10,5,23,0.26
2014-10-24,52.0,49.2,43.2,46.9,35.8,19.0,92,62,30,29.71,29.64,7,2,13,0.00
2014-10-25,52.8,47.3,42.1,46.6,43.7,40.7,95,87,75,29.72,29.46,3,0,4,0.00
2014-10-26,58.0,51.1,40.3,46.1,41.2,36.8,93,69,49,29.66,29.40,7,2,18,0.00
2014-10-27,61.5,47.0,37.5,44.6,38.9,35.8,94,75,43,29.99,29.65,9,1,17,0.00
2014-10-28,64.8,48.8,35.3,52.5,44.2,33.1,98,85,49,30.04,29.90,7,1,10,0.00
2014-10-29,68.2,55.1,47.7,55.8,38.0,17.5,98,56,24,29.91,29.73,7,1,12,0.00
2014-10-30,55.7,44.6,35.7,40.6,28.6,16.3,89,54,38,29.96,29.82,4,0,9,0.00
2014-10-31,53.2,45.3,36.7,33.0,23.9,16.1,50,42,33,30.01,29.93,4,1,9,0.00
2014-11-1,44.0,41.1,37.9,22.5,18.8,14.2,44,40,34,29.95,29.76,18,4,103,0.00
2014-11-2,40.5,38.8,34.2,25.1,18.8,15.1,54,44,35,29.81,29.59,13,6,27,0.00
2014-11-3,52.4,39.9,32.2,31.0,19.3,9.8,81,46,18,30.02,29.78,9,3,19,0.00
2014-11-4,62.2,45.4,30.4,41.3,33.8,22.7,87,66,34,30.09,29.95,7,1,11,0.01
2014-11-5,63.7,49.9,37.0,45.5,38.5,30.1,90,67,33,30.08,29.91,7,1,14,0.00
2014-11-6,48.4,43.5,37.2,45.9,37.2,21.1,95,80,35,30.08,29.46,4,0,31,0.00
2014-11-7,47.4,43.1,38.2,22.0,14.3,8.8,36,30,26,29.74,29.43,9,3,23,0.00
2014-11-8,48.5,38.8,33.0,30.9,21.4,9.4,83,51,31,29.92,29.75,7,2,15,0.00
2014-11-9,53.1,41.6,31.9,39.5,34.2,30.4,95,76,51,29.97,29.83,5,1,11,0.00
2014-11-10,59.2,41.4,28.8,38.2,29.1,13.2,96,64,36,30.16,29.97,5,1,9,0.00
2014-11-11,63.2,46.4,31.8,53.1,31.9,19.8,75,57,38,30.15,29.93,8,1,12,0.00
2014-11-12,60.7,52.8,41.8,54.6,35.5,16.9,90,54,22,29.97,29.80,6,2,13,0.00
2014-11-13,49.2,44.0,35.3,35.6,30.4,17.8,96,59,41,30.03,29.91,6,1,9,0.00
2014-11-14,41.0,34.4,28.8,34.3,24.6,5.7,98,70,27,30.06,29.87,6,1,12,0.00
2014-11-15,39.0,29.9,22.9,14.4,4.5,-3.7,64,34,23,30.29,30.05,8,1,13,0.00
2014-11-16,38.2,25.7,20.1,6.1,1.1,-7.8,46,35,24,30.34,30.27,4,0,6,0.00
2014-11-17,39.4,38.5,37.3,30.5,10.7,-1.5,74,32,19,29.79,29.42,6,1,9,0.00
2014-11-18,38.1,32.8,25.9,31.7,9.3,-1.0,88,38,19,29.87,29.42,10,4,20,0.00
2014-11-19,37.4,28.9,22.8,8.0,1.7,-3.9,39,31,22,30.08,29.86,10,4,16,0.00
2014-11-20,46.0,35.2,28.1,26.5,11.4,-1.0,64,37,14,30.01,29.70,12,3,21,0.00
2014-11-21,34.2,29.3,23.6,18.7,12.6,-0.6,65,50,36,30.36,29.88,8,3,18,0.00
2014-11-22,42.9,32.7,19.3,21.8,13.6,4.3,78,47,24,30.37,30.00,10,5,21,0.00
2014-11-23,57.9,46.2,38.5,40.6,33.0,21.9,80,60,47,30.09,30.00,8,2,13,0.00
2014-11-24,60.3,46.5,38.1,55.1,39.1,32.1,84,76,35,30.05,29.63,6,2,10,0.00
2014-11-25,60.4,53.7,37.2,54.9,42.1,15.9,94,67,32,30.08,29.65,8,2,14,0.00
2014-11-26,42.3,37.1,32.0,37.2,29.5,-5.3,99,76,19,30.17,29.67,8,2,15,0.15
2014-11-27,34.4,31.7,29.9,34.1,27.7,25.3,91,83,79,29.98,29.91,4,2,7,0.00
2014-11-28,33.2,28.5,19.4,28.9,22.9,8.8,92,80,48,30.17,29.96,6,1,13,0.00
2014-11-29,33.5,22.9,13.9,18.4,15.3,5.6,90,74,31,30.31,30.17,1,0,7,0.00
2014-12-1,59.2,50.6,37.5,45.7,39.2,26.3,71,64,58,30.41,29.99,7,3,13,0.00
2014-12-2,37.4,33.3,30.3,33.8,23.9,5.7,97,69,43,30.67,30.35,7,2,12,0.05
2014-12-3,38.7,34.6,32.6,38.0,33.9,31.9,97,97,96,30.35,30.05,5,2,8,0.50
2014-12-4,41.5,34.1,24.7,24.6,20.9,16.9,76,59,43,30.52,30.24,8,1,15,0.00
2014-12-5,36.7,26.9,19.4,31.5,20.1,13.8,95,75,63,30.65,30.41,5,1,8,0.00
2014-12-6,32.6,32.4,32.1,31.9,31.6,31.0,97,96,96,30.40,30.37,2,1,4,2.82
2014-12-7,32.0,22.4,19.1,31.3,6.2,-0.3,97,49,38,30.66,30.37,8,4,14,0.00
2014-12-8,25.5,20.3,15.4,22.6,10.8,0.9,88,67,47,30.73,30.48,6,2,14,0.00
2014-12-9,43.4,33.2,24.4,42.5,32.1,22.1,97,95,88,30.48,29.51,10,5,18,6.88
2014-12-10,40.8,37.0,36.3,40.2,36.0,35.4,97,96,93,29.53,29.41,6,1,12,0.00
2014-12-11,36.5,33.7,30.4,36.0,32.2,27.8,98,94,89,29.76,29.40,7,2,10,0.00
2014-12-12,37.5,33.0,28.2,30.6,28.3,16.2,94,83,51,29.85,29.76,3,0,12,0.00
2014-12-13,38.2,33.2,30.0,30.6,26.6,15.7,90,76,42,29.83,29.74,4,0,28,0.00
2014-12-14,42.8,35.7,30.6,30.1,28.3,19.9,86,74,60,29.88,29.76,4,0,15,0.00
2014-12-15,42.9,32.8,26.4,35.4,27.4,17.6,97,81,56,30.12,29.88,4,0,11,0.00
2014-12-16,39.0,33.4,26.8,35.4,30.6,25.3,95,89,79,30.13,30.03,3,0,4,0.00
2014-12-17,45.7,43.7,39.5,42.8,41.1,38.2,96,90,83,29.70,29.65,5,3,12,0.00
2014-12-18,43.0,39.1,35.7,33.5,29.1,26.9,71,67,63,29.82,29.72,9,3,22,1.19
2014-12-19,35.7,32.6,26.5,27.1,23.1,11.1,81,68,60,30.11,29.82,7,1,18,0.00
2014-12-20,33.5,29.7,23.3,26.2,22.8,19.3,86,75,67,30.27,30.11,4,0,45,0.00
2014-12-21,33.7,31.5,28.0,30.4,24.6,20.7,91,75,70,30.32,30.24,2,0,8,0.00
2014-12-22,40.7,35.4,31.8,35.6,30.4,23.6,94,81,70,30.35,30.24,3,0,10,0.40
2014-12-23,43.5,39.8,34.6,42.5,38.6,33.2,97,95,93,30.26,30.12,5,2,10,0.00
2014-12-24,42.2,39.9,38.1,41.7,39.3,37.3,98,97,97,30.13,29.52,4,2,9,0.00
2014-12-25,58.2,45.5,40.3,56.7,39.1,29.1,98,80,52,29.92,29.42,10,2,20,0.00
2014-12-26,49.4,39.5,31.9,39.3,30.3,27.9,89,70,51,30.12,29.92,8,1,17,0.01
2014-12-27,52.8,39.3,30.1,37.0,31.7,27.4,92,75,50,30.17,29.96,6,1,11,0.00
2014-12-28,51.1,44.6,37.4,42.4,35.3,28.9,87,69,61,29.96,29.70,13,1,186,0.00
2014-12-29,41.2,33.5,24.6,29.0,21.4,8.0,89,62,39,30.18,29.94,6,1,17,0.00
2014-12-30,29.4,23.4,15.8,14.3,7.7,-1.2,72,52,31,30.31,30.17,6,1,12,0.00
2014-12-31,30.2,19.6,10.6,12.9,9.3,1.5,89,66,41,30.28,30.08,6,1,16,0.00
2015-1-1,33.0,24.6,10.9,23.3,10.7,8.2,89,57,36,30.08,29.86,11,2,18,0.00
2015-1-2,38.6,33.0,26.4,25.3,17.2,12.3,60,52,42,30.42,29.88,10,2,19,0.00